Time;durP1;ratioP1;P1;durP2;ratioP2;P2;SDS_P1;SDS_P2;PMS_P1;PMS_P2;Temp;Humidity;BMP_temperature;BMP_pressure;BME280_temperature;BME280_humidity;BME280_pressure;Samples;Min_cycle;Max_cycle;Signal;HPM_P1;HPM_P2
2023/05/27 00:02:01;;;;;;;12.57;6.63;;;12.30;99.90;;;;;;5094031;28;20098;-70
2023/05/27 00:04:26;;;;;;;17.20;7.13;;;12.30;99.90;;;;;;5094657;28;20027;-70
2023/05/27 00:06:53;;;;;;;15.90;6.45;;;12.30;99.90;;;;;;5094327;28;20060;-70
2023/05/27 00:09:19;;;;;;;13.10;7.30;;;12.30;99.90;;;;;;5094591;28;20039;-70
2023/05/27 00:11:44;;;;;;;12.30;6.90;;;12.30;99.90;;;;;;5094394;28;20024;-70
2023/05/27 00:14:10;;;;;;;11.40;6.30;;;12.20;99.90;;;;;;5093357;28;20028;-70
2023/05/27 00:16:35;;;;;;;13.88;6.78;;;12.20;99.90;;;;;;5094165;28;20035;-70
2023/05/27 00:19:02;;;;;;;15.38;6.95;;;12.10;99.90;;;;;;5093189;28;20158;-70
2023/05/27 00:21:28;;;;;;;9.32;6.18;;;12.10;99.90;;;;;;5094050;28;20028;-70
2023/05/27 00:23:53;;;;;;;18.52;7.30;;;12.00;99.90;;;;;;5076006;28;20028;-70
2023/05/27 00:26:20;;;;;;;15.73;7.43;;;12.00;99.90;;;;;;5075995;28;20557;-70
2023/05/27 00:28:45;;;;;;;10.05;6.10;;;12.00;99.90;;;;;;5076243;28;20020;-70
2023/05/27 00:31:11;;;;;;;12.23;5.63;;;11.90;99.90;;;;;;5075965;28;20030;-70
2023/05/27 00:33:37;;;;;;;14.40;6.90;;;11.90;99.90;;;;;;5093703;28;20032;-70
2023/05/27 00:36:03;;;;;;;13.65;6.47;;;11.80;99.90;;;;;;5075920;28;20028;-70
2023/05/27 00:38:29;;;;;;;12.13;6.63;;;11.80;99.90;;;;;;5075875;28;20028;-70
2023/05/27 00:40:57;;;;;;;11.27;5.75;;;11.70;99.90;;;;;;5092665;28;20028;-70
2023/05/27 00:43:22;;;;;;;13.10;6.13;;;11.70;99.90;;;;;;5092641;28;20044;-70
2023/05/27 00:45:48;;;;;;;15.27;6.47;;;11.60;99.90;;;;;;5093832;28;20082;-70
2023/05/27 00:48:14;;;;;;;10.73;5.93;;;11.60;99.90;;;;;;5093550;28;20153;-70
2023/05/27 00:50:40;;;;;;;13.88;6.15;;;11.50;99.90;;;;;;5094343;28;20418;-70
2023/05/27 00:53:05;;;;;;;15.88;7.28;;;11.50;99.90;;;;;;5093479;28;20103;-70
2023/05/27 00:55:31;;;;;;;9.48;5.63;;;11.40;99.90;;;;;;5092412;28;20054;-70
2023/05/27 00:57:57;;;;;;;10.50;5.93;;;11.40;99.90;;;;;;5093067;28;20066;-70
2023/05/27 01:00:22;;;;;;;16.65;5.45;;;11.30;99.90;;;;;;5075238;28;20052;-70
2023/05/27 01:02:49;;;;;;;11.30;5.35;;;11.30;99.90;;;;;;5093355;28;20032;-70
2023/05/27 01:05:17;;;;;;;13.15;6.15;;;11.20;99.90;;;;;;5077694;28;20407;-70
2023/05/27 01:07:48;;;;;;;9.93;5.20;;;11.20;99.90;;;;;;5079569;28;20089;-70
2023/05/27 01:10:49;;;;;;;11.63;5.90;;;11.20;99.90;;;;;;5097421;28;20055;-70
2023/05/27 01:13:40;;;;;;;13.98;5.95;;;11.10;99.90;;;;;;5062377;28;20040;-70
2023/05/27 01:16:14;;;;;;;7.97;5.90;;;11.10;99.90;;;;;;5097719;28;20024;-69
2023/05/27 01:18:44;;;;;;;15.23;7.07;;;11.00;99.90;;;;;;5079604;28;20446;-70
2023/05/27 01:21:12;;;;;;;13.65;6.00;;;11.00;99.90;;;;;;5079337;28;20035;-70
2023/05/27 01:23:38;;;;;;;9.88;6.25;;;10.90;99.90;;;;;;5097144;28;20036;-70
2023/05/27 01:26:07;;;;;;;12.75;6.10;;;10.90;99.90;;;;;;5079174;28;20032;-70
2023/05/27 01:28:33;;;;;;;14.38;5.78;;;10.90;99.90;;;;;;5097359;28;20085;-70
2023/05/27 01:31:12;;;;;;;11.38;5.90;;;10.80;99.90;;;;;;5097269;28;20027;-70
2023/05/27 01:33:41;;;;;;;12.48;5.72;;;10.80;99.90;;;;;;5097312;28;20024;-71
2023/05/27 01:36:14;;;;;;;10.23;6.20;;;10.80;99.90;;;;;;5079534;28;20024;-70
2023/05/27 01:38:43;;;;;;;15.80;5.20;;;10.80;99.90;;;;;;5079223;28;20115;-70
2023/05/27 01:41:09;;;;;;;10.65;5.50;;;10.80;99.90;;;;;;5096771;28;20381;-70
2023/05/27 01:43:37;;;;;;;12.95;6.15;;;10.80;99.90;;;;;;5078682;28;20035;-71
2023/05/27 01:46:03;;;;;;;15.32;6.35;;;10.70;99.90;;;;;;5078505;28;20059;-70
2023/05/27 01:48:28;;;;;;;14.77;6.22;;;10.70;99.90;;;;;;5096998;28;20090;-70
2023/05/27 01:50:54;;;;;;;12.60;5.80;;;10.70;99.90;;;;;;5096917;28;20058;-70
2023/05/27 01:53:20;;;;;;;12.13;6.00;;;10.60;99.90;;;;;;5078738;28;20031;-70
2023/05/27 01:55:45;;;;;;;21.20;6.22;;;10.60;99.90;;;;;;5096812;28;20021;-70
2023/05/27 01:58:11;;;;;;;10.05;5.85;;;10.50;99.90;;;;;;5078558;28;20389;-70
2023/05/27 02:00:37;;;;;;;10.07;5.55;;;10.50;99.90;;;;;;5096390;28;20051;-70
2023/05/27 02:03:02;;;;;;;16.67;6.80;;;10.50;99.90;;;;;;5096622;28;20036;-70
2023/05/27 02:05:28;;;;;;;15.65;6.00;;;10.50;99.90;;;;;;5078440;28;20461;-70
2023/05/27 02:07:54;;;;;;;12.77;5.68;;;10.40;99.90;;;;;;5096331;28;20362;-70
2023/05/27 02:10:19;;;;;;;13.82;5.72;;;10.40;99.90;;;;;;5096843;28;20032;-70
2023/05/27 02:12:45;;;;;;;14.95;7.80;;;10.40;99.90;;;;;;5078364;28;20485;-70
2023/05/27 02:15:11;;;;;;;13.50;5.28;;;10.40;99.90;;;;;;5096508;28;20035;-70
2023/05/27 02:17:37;;;;;;;14.18;5.60;;;10.40;99.90;;;;;;5077559;28;20078;-70
2023/05/27 02:20:03;;;;;;;15.27;6.25;;;10.40;99.90;;;;;;5096479;28;20030;-70
2023/05/27 02:22:29;;;;;;;11.15;6.10;;;10.40;99.90;;;;;;5078408;28;20486;-70
2023/05/27 02:24:55;;;;;;;11.27;5.85;;;10.30;99.90;;;;;;5078150;28;20550;-70
2023/05/27 02:27:20;;;;;;;10.52;5.13;;;10.30;99.90;;;;;;5096306;28;20027;-70
2023/05/27 02:29:46;;;;;;;14.02;5.53;;;10.20;99.90;;;;;;5096231;28;20028;-70
2023/05/27 02:32:12;;;;;;;10.88;6.03;;;10.20;99.90;;;;;;5096218;28;20534;-70
2023/05/27 02:34:37;;;;;;;12.50;5.78;;;10.20;99.90;;;;;;5077995;28;20024;-70
2023/05/27 02:37:07;;;;;;;15.35;6.45;;;10.20;99.90;;;;;;5078242;28;20476;-71
2023/05/27 02:39:32;;;;;;;;;;;10.20;99.90;;;;;;5079452;28;20218;-70
2023/05/27 02:41:58;;;;;;;15.05;6.20;;;10.10;99.90;;;;;;5100320;28;20353;-74
2023/05/27 02:44:24;;;;;;;13.10;5.63;;;10.10;99.90;;;;;;5101556;28;20046;-71
2023/05/27 02:46:49;;;;;;;14.63;6.60;;;10.10;99.90;;;;;;5101693;28;20024;-71
2023/05/27 02:49:16;;;;;;;13.35;6.20;;;10.10;99.90;;;;;;5101801;28;20028;-73
2023/05/27 02:51:42;;;;;;;11.57;5.72;;;10.00;99.90;;;;;;5100611;28;20020;-70
2023/05/27 02:54:08;;;;;;;14.38;6.43;;;10.00;99.90;;;;;;5097533;28;20024;-70
2023/05/27 02:56:33;;;;;;;11.38;5.80;;;10.00;99.90;;;;;;5097114;28;20066;-70
2023/05/27 02:58:59;;;;;;;15.13;5.75;;;10.00;99.90;;;;;;5077789;28;20516;-70
2023/05/27 03:01:24;;;;;;;17.40;5.65;;;10.00;99.90;;;;;;5077666;28;20028;-70
2023/05/27 03:03:50;;;;;;;14.13;5.88;;;10.00;99.90;;;;;;5077465;28;20423;-70
2023/05/27 03:06:16;;;;;;;14.57;5.72;;;10.00;99.90;;;;;;5077844;28;20465;-70
2023/05/27 03:08:41;;;;;;;9.48;5.93;;;10.00;99.90;;;;;;5096280;28;20076;-70
2023/05/27 03:11:07;;;;;;;13.68;6.68;;;9.90;99.90;;;;;;5095646;28;20081;-70
2023/05/27 03:13:33;;;;;;;11.45;6.25;;;9.90;99.90;;;;;;5095159;28;20085;-70
2023/05/27 03:15:58;;;;;;;13.45;6.00;;;9.90;99.90;;;;;;5077260;28;20111;-70
2023/05/27 03:18:24;;;;;;;12.48;5.55;;;9.90;99.90;;;;;;5095349;28;20060;-70
2023/05/27 03:20:50;;;;;;;14.98;6.90;;;9.90;99.90;;;;;;5094156;28;20020;-70
2023/05/27 03:23:16;;;;;;;14.18;6.10;;;9.90;99.90;;;;;;5077092;28;20047;-70
2023/05/27 03:25:42;;;;;;;10.85;5.65;;;9.90;99.90;;;;;;5094935;28;20354;-70
2023/05/27 03:28:07;;;;;;;13.90;6.68;;;9.80;99.90;;;;;;5076086;28;20027;-70
2023/05/27 03:30:33;;;;;;;12.30;6.55;;;9.80;99.90;;;;;;5076914;28;20073;-70
2023/05/27 03:32:59;;;;;;;11.55;6.38;;;9.80;99.90;;;;;;5076783;28;20035;-70
2023/05/27 03:35:24;;;;;;;14.43;6.82;;;9.80;99.90;;;;;;5094968;28;20099;-70
2023/05/27 03:37:50;;;;;;;17.77;6.75;;;9.80;99.90;;;;;;5093704;28;20024;-70
2023/05/27 03:40:16;;;;;;;12.02;5.32;;;9.80;99.90;;;;;;5094834;28;20067;-70
2023/05/27 03:42:41;;;;;;;13.63;6.13;;;9.80;99.90;;;;;;5093489;28;20123;-70
2023/05/27 03:45:07;;;;;;;12.88;6.25;;;9.80;99.90;;;;;;5094778;28;20020;-70
2023/05/27 03:47:34;;;;;;;15.45;5.65;;;9.80;99.90;;;;;;5076215;28;20032;-70
2023/05/27 03:50:00;;;;;;;9.00;5.30;;;9.80;99.90;;;;;;5094748;28;20027;-70
2023/05/27 03:52:26;;;;;;;11.93;5.40;;;9.90;99.90;;;;;;5076532;28;20031;-70
2023/05/27 03:54:52;;;;;;;9.65;5.20;;;10.00;99.90;;;;;;5076453;28;20028;-70
2023/05/27 03:57:17;;;;;;;12.13;4.93;;;10.10;99.90;;;;;;5094535;28;20028;-70
2023/05/27 03:59:43;;;;;;;14.05;5.30;;;10.20;99.90;;;;;;5094402;28;20126;-71
2023/05/27 04:02:09;;;;;;;12.35;5.05;;;10.20;99.90;;;;;;5094404;28;20036;-70
2023/05/27 04:04:34;;;;;;;12.07;4.55;;;10.30;99.90;;;;;;5094326;28;20024;-70
2023/05/27 04:07:01;;;;;;;11.35;4.85;;;10.40;99.90;;;;;;5093115;28;20362;-70
2023/05/27 04:09:26;;;;;;;11.45;5.70;;;10.50;99.90;;;;;;5076793;28;20472;-70
2023/05/27 04:11:52;;;;;;;11.77;4.78;;;10.50;99.90;;;;;;5093060;28;20028;-70
2023/05/27 04:14:18;;;;;;;13.25;4.95;;;10.60;99.90;;;;;;5093982;28;20028;-71
2023/05/27 04:16:44;;;;;;;11.02;4.68;;;10.70;99.90;;;;;;5094211;28;20020;-71
2023/05/27 04:19:09;;;;;;;10.60;5.00;;;10.80;99.90;;;;;;5076050;28;20435;-70
2023/05/27 04:21:35;;;;;;;12.13;4.40;;;10.90;99.90;;;;;;5093786;28;20108;-70
2023/05/27 04:24:02;;;;;;;11.95;4.60;;;11.00;99.90;;;;;;5092917;28;20425;-70
2023/05/27 04:26:28;;;;;;;13.38;4.90;;;11.00;99.90;;;;;;5092777;28;20034;-70
2023/05/27 04:28:54;;;;;;;10.63;4.55;;;11.10;99.90;;;;;;5093778;28;20028;-74
2023/05/27 04:31:19;;;;;;;13.10;5.47;;;11.20;99.90;;;;;;5075893;28;20429;-74
2023/05/27 04:33:45;;;;;;;9.15;3.90;;;11.20;99.90;;;;;;5092673;28;20035;-73
2023/05/27 04:36:11;;;;;;;13.15;5.30;;;11.30;99.90;;;;;;5093974;28;20099;-74
2023/05/27 04:38:37;;;;;;;10.10;4.10;;;11.40;99.90;;;;;;5075437;28;20024;-74
2023/05/27 04:41:03;;;;;;;15.43;4.80;;;11.50;99.90;;;;;;5093602;28;20024;-73
2023/05/27 04:43:30;;;;;;;10.90;4.70;;;11.60;99.90;;;;;;5075629;28;20046;-76
2023/05/27 04:45:59;;;;;;;10.73;4.00;;;11.70;99.90;;;;;;5094140;28;20024;-73
2023/05/27 04:48:25;;;;;;;13.23;3.60;;;11.80;99.90;;;;;;5093838;28;20115;-74
2023/05/27 04:50:53;;;;;;;11.98;4.53;;;11.90;99.90;;;;;;5093698;28;20052;-74
2023/05/27 04:53:19;;;;;;;12.75;4.82;;;12.10;99.90;;;;;;5075866;28;20119;-75
2023/05/27 04:55:45;;;;;;;11.10;3.92;;;12.20;99.90;;;;;;5092794;28;20051;-73
2023/05/27 04:58:11;;;;;;;13.43;3.72;;;12.30;99.90;;;;;;5075616;28;20031;-74
2023/05/27 05:00:49;;;;;;;10.25;3.67;;;12.40;99.90;;;;;;5093206;28;20051;-73
2023/05/27 05:03:20;;;;;;;11.43;3.70;;;12.60;99.90;;;;;;5092452;28;20469;-73
2023/05/27 05:05:48;;;;;;;11.60;3.63;;;12.70;99.90;;;;;;5076050;28;20020;-73
2023/05/27 05:08:14;;;;;;;12.13;3.33;;;12.70;99.90;;;;;;5093685;28;20028;-73
2023/05/27 05:10:40;;;;;;;10.60;3.42;;;12.80;99.90;;;;;;5075469;28;20111;-73
2023/05/27 05:13:05;;;;;;;9.07;2.90;;;12.90;99.90;;;;;;5075495;28;20077;-73
2023/05/27 05:15:31;;;;;;;13.52;4.03;;;13.00;99.90;;;;;;5093559;28;20110;-73
2023/05/27 05:17:57;;;;;;;14.45;3.28;;;13.00;99.90;;;;;;5093509;28;20016;-74
2023/05/27 05:20:22;;;;;;;14.20;3.58;;;13.10;99.90;;;;;;5075398;28;20078;-73
2023/05/27 05:22:48;;;;;;;9.63;3.10;;;13.20;99.90;;;;;;5093441;28;20042;-75
2023/05/27 05:25:14;;;;;;;15.35;3.50;;;13.40;99.90;;;;;;5093191;28;20020;-75
2023/05/27 05:27:41;;;;;;;11.15;3.63;;;13.50;99.90;;;;;;5093412;28;20024;-72
2023/05/27 05:30:08;;;;;;;10.43;2.95;;;13.60;99.90;;;;;;5074972;28;20024;-73
2023/05/27 05:32:33;;;;;;;9.45;3.22;;;13.60;99.90;;;;;;5093065;28;20032;-73
2023/05/27 05:34:59;;;;;;;13.40;3.25;;;13.70;99.90;;;;;;5092114;28;20389;-73
2023/05/27 05:37:25;;;;;;;12.98;3.13;;;13.70;99.90;;;;;;5075267;28;20020;-73
2023/05/27 05:39:50;;;;;;;8.65;3.30;;;13.70;99.90;;;;;;5075215;28;20085;-74
2023/05/27 05:42:17;;;;;;;9.77;3.00;;;13.80;99.90;;;;;;5075638;28;20036;-73
2023/05/27 05:44:42;;;;;;;12.57;3.40;;;13.80;99.90;;;;;;5075075;28;20024;-73
2023/05/27 05:47:08;;;;;;;9.68;3.92;;;13.90;99.90;;;;;;5075188;28;20078;-73
2023/05/27 05:49:33;;;;;;;10.73;3.30;;;13.90;99.90;;;;;;5075166;28;20351;-73
2023/05/27 05:51:59;;;;;;;9.88;3.10;;;14.00;99.90;;;;;;5076923;28;20039;-72
2023/05/27 05:54:25;;;;;;;10.80;2.97;;;14.10;99.90;;;;;;5096856;28;20376;-72
2023/05/27 05:56:51;;;;;;;10.10;3.20;;;14.10;99.90;;;;;;5079287;28;20480;-73
2023/05/27 05:59:17;;;;;;;14.52;3.63;;;14.20;99.90;;;;;;5078261;28;20048;-73
2023/05/27 06:01:43;;;;;;;9.10;3.55;;;14.20;99.90;;;;;;5078515;28;20032;-74
2023/05/27 06:04:08;;;;;;;11.85;3.50;;;14.30;99.90;;;;;;5096726;28;20025;-76
2023/05/27 06:06:34;;;;;;;11.15;2.75;;;14.50;99.90;;;;;;5078479;28;20115;-73
2023/05/27 06:08:59;;;;;;;13.07;3.83;;;14.90;99.90;;;;;;5078644;28;20449;-64
2023/05/27 06:11:26;;;;;;;11.10;3.30;;;15.40;99.90;;;;;;5096901;28;20346;-79
2023/05/27 06:13:52;;;;;;;7.32;2.83;;;15.90;99.90;;;;;;5078524;28;20035;-79
2023/05/27 06:16:17;;;;;;;12.77;3.05;;;16.10;99.50;;;;;;5096644;28;20365;-79
2023/05/27 06:18:45;;;;;;;12.90;3.30;;;16.30;98.70;;;;;;5096517;28;20491;-79
2023/05/27 06:21:11;;;;;;;16.60;3.20;;;16.50;98.30;;;;;;5078557;28;20412;-69
2023/05/27 06:23:37;;;;;;;13.43;3.38;;;16.70;97.40;;;;;;5096220;28;20430;-72
2023/05/27 06:26:03;;;;;;;9.27;2.75;;;16.70;96.90;;;;;;5078513;28;20123;-73
2023/05/27 06:28:28;;;;;;;10.52;3.03;;;16.80;96.30;;;;;;5078400;28;20362;-74
2023/05/27 06:30:54;;;;;;;12.95;3.53;;;17.00;96.60;;;;;;5078101;28;20376;-74
2023/05/27 06:33:20;;;;;;;11.40;3.53;;;17.40;95.50;;;;;;5096130;28;20036;-71
2023/05/27 06:35:45;;;;;;;14.85;3.50;;;17.40;94.30;;;;;;5096046;28;20027;-72
2023/05/27 06:38:11;;;;;;;9.57;2.97;;;17.60;93.70;;;;;;5096254;28;20024;-70
2023/05/27 06:40:36;;;;;;;10.10;3.45;;;17.60;93.90;;;;;;5095983;28;20099;-71
2023/05/27 06:43:02;;;;;;;13.02;3.63;;;17.90;93.10;;;;;;5095785;28;20032;-71
2023/05/27 06:45:28;;;;;;;8.32;3.53;;;18.10;92.20;;;;;;5077676;28;20024;-73
2023/05/27 06:47:53;;;;;;;13.27;3.40;;;18.20;92.10;;;;;;5095849;28;20035;-72
2023/05/27 06:50:19;;;;;;;10.93;3.80;;;18.40;91.80;;;;;;5094378;28;20090;-73
2023/05/27 06:52:45;;;;;;;10.68;2.90;;;18.80;90.50;;;;;;5094349;28;20119;-72
2023/05/27 06:55:10;;;;;;;13.75;4.20;;;19.10;88.40;;;;;;5095600;28;20032;-72
2023/05/27 06:57:36;;;;;;;14.38;3.40;;;19.40;85.50;;;;;;5095644;28;20024;-72
2023/05/27 07:00:05;;;;;;;12.63;3.80;;;19.50;84.80;;;;;;5076799;28;20048;-71
2023/05/27 07:02:30;;;;;;;13.98;3.65;;;19.30;82.70;;;;;;5095298;28;20071;-72
2023/05/27 07:04:56;;;;;;;12.50;3.53;;;19.10;83.00;;;;;;5094147;28;20040;-72
2023/05/27 07:07:22;;;;;;;11.50;3.10;;;19.00;83.30;;;;;;5095231;28;20509;-75
2023/05/27 07:09:47;;;;;;;17.27;4.00;;;18.80;83.30;;;;;;5095527;28;20462;-78
2023/05/27 07:12:13;;;;;;;15.05;3.53;;;18.90;83.80;;;;;;5095400;28;20473;-72
2023/05/27 07:14:38;;;;;;;12.73;3.97;;;19.00;83.40;;;;;;5095392;28;20035;-72
2023/05/27 07:17:05;;;;;;;13.40;2.97;;;19.40;81.80;;;;;;5095736;28;20024;-72
2023/05/27 07:19:30;;;;;;;11.88;3.70;;;19.60;80.20;;;;;;5077001;28;20076;-72
2023/05/27 07:21:56;;;;;;;9.05;3.08;;;19.60;77.90;;;;;;5095381;28;20118;-71
2023/05/27 07:24:22;;;;;;;13.70;3.50;;;19.70;81.80;;;;;;5077131;28;20024;-72
2023/05/27 07:26:47;;;;;;;14.18;3.22;;;20.10;78.80;;;;;;5095755;28;20031;-72
2023/05/27 07:29:13;;;;;;;14.32;4.43;;;20.60;77.50;;;;;;5076416;28;20028;-73
2023/05/27 07:31:38;;;;;;;9.70;3.13;;;20.90;73.80;;;;;;5077393;28;20028;-72
2023/05/27 07:34:04;;;;;;;9.82;3.78;;;21.20;74.00;;;;;;5095228;28;20032;-72
2023/05/27 07:36:36;;;;;;;12.30;3.75;;;21.30;72.50;;;;;;5094939;28;20374;-72
2023/05/27 07:39:02;;;;;;;6.22;2.90;;;21.50;70.20;;;;;;5094922;28;20469;-72
2023/05/27 07:41:29;;;;;;;11.13;3.60;;;21.80;69.60;;;;;;5076289;28;20123;-72
2023/05/27 07:43:55;;;;;;;16.13;3.70;;;21.40;67.40;;;;;;5094678;28;20028;-72
2023/05/27 07:46:21;;;;;;;13.13;3.50;;;21.20;68.40;;;;;;5094666;28;20020;-72
2023/05/27 07:48:47;;;;;;;15.45;4.18;;;21.30;67.70;;;;;;5094572;28;20041;-72
2023/05/27 07:51:14;;;;;;;16.02;3.40;;;21.30;68.90;;;;;;5076367;28;20416;-72
2023/05/27 07:53:40;;;;;;;9.10;3.08;;;21.50;64.40;;;;;;5094589;28;20035;-72
2023/05/27 07:56:05;;;;;;;12.13;3.65;;;21.40;64.60;;;;;;5076381;28;20027;-72
2023/05/27 07:58:31;;;;;;;9.00;2.95;;;21.60;65.70;;;;;;5076115;28;20366;-72
2023/05/27 08:00:57;;;;;;;18.40;3.95;;;21.90;63.40;;;;;;5076237;28;20024;-72
2023/05/27 08:03:22;;;;;;;13.40;3.53;;;21.80;63.20;;;;;;5076244;28;20159;-72
2023/05/27 08:05:48;;;;;;;18.60;4.10;;;21.90;64.20;;;;;;5075887;28;20058;-72
2023/05/27 08:08:15;;;;;;;13.48;3.30;;;22.20;63.10;;;;;;5093999;28;20024;-72
2023/05/27 08:10:40;;;;;;;15.10;4.00;;;22.50;61.70;;;;;;5076243;28;20469;-72
2023/05/27 08:13:06;;;;;;;15.02;3.38;;;22.90;60.20;;;;;;5094477;28;20032;-72
2023/05/27 08:15:32;;;;;;;12.38;4.05;;;23.30;59.60;;;;;;5075454;28;20027;-72
2023/05/27 08:17:57;;;;;;;13.80;4.15;;;23.40;58.10;;;;;;5075968;28;20032;-72
2023/05/27 08:20:23;;;;;;;13.20;3.30;;;22.80;58.20;;;;;;5075790;28;20028;-72
2023/05/27 08:22:49;;;;;;;9.77;3.35;;;22.30;58.80;;;;;;5093692;28;20111;-72
2023/05/27 08:25:15;;;;;;;12.02;3.33;;;22.30;60.50;;;;;;5075739;28;20047;-72
2023/05/27 08:27:57;;;;;;;10.85;3.53;;;22.40;60.00;;;;;;5075924;28;20100;-72
2023/05/27 08:30:23;;;;;;;16.10;3.63;;;22.40;57.90;;;;;;5076139;28;20020;-72
2023/05/27 08:32:48;;;;;;;11.13;3.15;;;22.50;58.40;;;;;;5093952;28;20426;-72
2023/05/27 08:35:14;;;;;;;14.25;3.47;;;22.90;57.60;;;;;;5093882;28;20026;-72
2023/05/27 08:37:40;;;;;;;8.90;2.95;;;23.20;56.60;;;;;;5075823;28;20024;-72
2023/05/27 08:40:18;;;;;;;13.80;3.47;;;23.90;55.80;;;;;;5075829;28;20485;-72
2023/05/27 08:42:44;;;;;;;9.48;2.97;;;24.30;53.90;;;;;;5075598;28;20047;-72
2023/05/27 08:45:11;;;;;;;12.98;3.50;;;24.20;52.20;;;;;;5075682;28;20024;-72
2023/05/27 08:47:38;;;;;;;10.63;3.47;;;24.10;51.70;;;;;;5093744;28;20081;-72
2023/05/27 08:50:05;;;;;;;7.95;3.30;;;23.70;51.60;;;;;;5075530;28;20485;-72
2023/05/27 08:52:32;;;;;;;8.35;2.72;;;23.50;52.40;;;;;;5075621;28;20122;-72
2023/05/27 08:54:59;;;;;;;12.88;3.38;;;23.60;52.90;;;;;;5093690;28;20023;-72
2023/05/27 08:57:29;;;;;;;8.15;2.53;;;24.10;51.30;;;;;;5075240;28;20111;-72
2023/05/27 08:59:56;;;;;;;10.38;3.10;;;24.20;50.90;;;;;;5075505;28;20075;-72
2023/05/27 09:02:22;;;;;;;9.98;3.22;;;23.40;50.20;;;;;;5075790;28;20055;-72
2023/05/27 09:04:48;;;;;;;11.88;2.83;;;23.40;52.50;;;;;;5075862;28;20024;-72
2023/05/27 09:07:14;;;;;;;9.77;2.97;;;24.00;50.50;;;;;;5093917;28;20028;-72
2023/05/27 09:09:40;;;;;;;10.45;3.70;;;23.80;48.70;;;;;;5075433;28;20067;-72
2023/05/27 09:12:08;;;;;;;10.90;3.67;;;24.00;49.20;;;;;;5075415;28;20080;-72
2023/05/27 09:14:37;;;;;;;11.68;3.15;;;24.40;49.70;;;;;;5093898;28;20031;-72
2023/05/27 09:17:08;;;;;;;14.38;3.28;;;24.70;48.50;;;;;;5093832;28;20450;-72
2023/05/27 09:19:34;;;;;;;13.73;3.00;;;25.20;48.40;;;;;;5075348;28;20488;-72
2023/05/27 09:22:00;;;;;;;9.77;3.25;;;25.50;47.40;;;;;;5075149;28;20036;-72
2023/05/27 09:24:26;;;;;;;10.70;3.45;;;25.50;45.90;;;;;;5075233;28;20553;-72
2023/05/27 09:26:54;;;;;;;10.80;3.30;;;25.50;46.10;;;;;;5076507;28;20485;-73
2023/05/27 09:29:20;;;;;;;12.70;3.95;;;25.90;47.40;;;;;;5097355;28;20032;-72
2023/05/27 09:31:46;;;;;;;9.70;3.75;;;26.00;44.70;;;;;;5079486;28;20424;-72
2023/05/27 09:34:16;;;;;;;14.52;3.97;;;25.70;43.80;;;;;;5078981;28;20024;-72
2023/05/27 09:36:47;;;;;;;13.55;3.75;;;25.80;45.40;;;;;;5078901;28;20024;-72
2023/05/27 09:39:18;;;;;;;9.68;3.70;;;26.20;44.80;;;;;;5096848;28;20024;-72
2023/05/27 09:41:49;;;;;;;11.25;3.10;;;26.60;44.30;;;;;;5078761;28;20028;-72
2023/05/27 09:44:15;;;;;;;9.00;3.33;;;26.50;42.00;;;;;;5097134;28;20024;-72
2023/05/27 09:46:44;;;;;;;12.10;3.05;;;26.30;42.80;;;;;;5078833;28;20036;-72
2023/05/27 09:49:10;;;;;;;9.57;3.10;;;26.30;43.10;;;;;;5078795;28;20515;-72
2023/05/27 09:51:39;;;;;;;12.23;2.95;;;25.80;40.20;;;;;;5096886;28;20020;-71
2023/05/27 09:54:06;;;;;;;8.57;2.78;;;25.00;41.60;;;;;;5079471;28;20457;-72
2023/05/27 09:56:32;;;;;;;11.20;3.50;;;25.40;43.40;;;;;;5096851;28;20118;-72
2023/05/27 09:58:58;;;;;;;13.57;3.28;;;26.10;42.40;;;;;;5096352;28;20475;-72
2023/05/27 10:01:28;;;;;;;10.10;3.50;;;26.20;42.20;;;;;;5078580;28;20067;-72
2023/05/27 10:03:56;;;;;;;10.18;3.50;;;26.30;42.10;;;;;;5078344;28;20040;-72
2023/05/27 10:06:32;;;;;;;7.40;3.30;;;26.50;41.40;;;;;;5078794;28;20461;-72
2023/05/27 10:08:58;;;;;;;6.63;3.20;;;26.40;41.20;;;;;;5078635;28;20025;-72
2023/05/27 10:11:26;;;;;;;15.85;3.47;;;26.60;42.30;;;;;;5096483;28;20076;-73
2023/05/27 10:13:52;;;;;;;8.30;2.77;;;26.90;41.90;;;;;;5078331;28;20032;-72
2023/05/27 10:16:22;;;;;;;15.43;3.42;;;26.50;39.60;;;;;;5078642;28;20027;-72
2023/05/27 10:18:52;;;;;;;15.70;3.42;;;26.00;41.10;;;;;;5096554;28;20024;-72
2023/05/27 10:21:24;;;;;;;9.95;3.15;;;26.50;41.20;;;;;;5078305;28;20085;-72
2023/05/27 10:24:11;;;;;;;11.60;3.90;;;27.20;40.10;;;;;;5078255;28;20036;-72
2023/05/27 10:26:40;;;;;;;10.20;3.37;;;27.40;38.00;;;;;;5078696;28;20020;-72
2023/05/27 10:29:09;;;;;;;10.48;3.28;;;26.50;37.90;;;;;;5078031;28;20028;-72
2023/05/27 10:31:37;;;;;;;8.00;3.33;;;26.10;38.60;;;;;;5096179;28;20027;-72
2023/05/27 10:34:06;;;;;;;9.18;2.90;;;25.90;39.50;;;;;;5077651;28;20034;-72
2023/05/27 10:36:33;;;;;;;9.95;3.15;;;26.50;40.00;;;;;;5077908;28;20024;-72
2023/05/27 10:39:04;;;;;;;7.68;3.17;;;26.60;39.80;;;;;;5077381;28;20028;-72
2023/05/27 10:41:41;;;;;;;9.23;2.90;;;26.90;40.20;;;;;;5077657;28;20393;-72
2023/05/27 10:44:07;;;;;;;9.73;3.03;;;26.80;40.30;;;;;;5078414;28;20032;-72
2023/05/27 10:46:40;;;;;;;11.50;3.53;;;26.40;40.20;;;;;;5095567;28;20071;-72
2023/05/27 10:49:37;;;;;;;9.18;2.85;;;26.80;40.00;;;;;;5077589;28;20028;-72
2023/05/27 10:52:13;;;;;;;14.02;3.22;;;26.80;40.10;;;;;;5065362;28;20068;-72
2023/05/27 10:54:45;;;;;;;10.40;3.53;;;26.70;40.10;;;;;;5078079;28;20035;-72
2023/05/27 10:57:12;;;;;;;9.57;2.85;;;27.20;39.50;;;;;;5077663;28;20024;-72
2023/05/27 10:59:54;;;;;;;12.18;3.40;;;27.60;39.60;;;;;;5077258;28;20498;-72
2023/05/27 11:02:21;;;;;;;10.40;3.30;;;27.80;39.10;;;;;;5095521;28;20066;-71
2023/05/27 11:04:50;;;;;;;11.32;3.10;;;27.40;39.50;;;;;;5077351;28;20020;-72
2023/05/27 11:07:21;;;;;;;8.45;2.97;;;27.10;39.70;;;;;;5077945;28;20123;-71
2023/05/27 11:09:51;;;;;;;7.93;2.85;;;26.50;40.70;;;;;;5076929;28;20024;-72
2023/05/27 11:12:18;;;;;;;9.50;2.90;;;27.20;40.60;;;;;;5095318;28;20020;-72
2023/05/27 11:14:44;;;;;;;12.65;3.85;;;27.70;39.50;;;;;;5076832;28;20039;-72
2023/05/27 11:17:11;;;;;;;8.18;2.92;;;28.00;38.90;;;;;;5095667;28;20072;-72
2023/05/27 11:19:39;;;;;;;9.07;3.15;;;28.30;39.20;;;;;;5077297;28;20028;-72
2023/05/27 11:22:06;;;;;;;9.88;3.28;;;28.90;38.50;;;;;;5076896;28;20074;-72
2023/05/27 11:24:31;;;;;;;11.75;3.05;;;29.00;36.90;;;;;;5077029;28;20113;-72
2023/05/27 11:26:57;;;;;;;9.30;3.40;;;28.70;38.80;;;;;;5076926;28;20024;-72
2023/05/27 11:29:23;;;;;;;8.40;3.40;;;28.60;39.20;;;;;;5077334;28;20024;-82
2023/05/27 11:31:49;;;;;;;10.25;4.15;;;29.00;37.80;;;;;;5076583;28;20032;-72
2023/05/27 11:34:16;;;;;;;9.77;3.67;;;28.70;38.40;;;;;;5076784;28;20035;-72
2023/05/27 11:36:45;;;;;;;12.45;3.42;;;28.00;37.60;;;;;;5094618;28;20032;-72
2023/05/27 11:39:13;;;;;;;12.05;3.80;;;27.80;39.60;;;;;;5076645;28;20024;-72
2023/05/27 11:41:49;;;;;;;11.50;3.83;;;28.50;38.60;;;;;;5094835;28;20056;-72
2023/05/27 11:44:15;;;;;;;10.95;3.03;;;29.10;38.40;;;;;;5076641;28;20286;-72
2023/05/27 11:46:42;;;;;;;9.55;3.30;;;28.90;37.40;;;;;;5076542;28;20031;-72
2023/05/27 11:49:10;;;;;;;9.32;3.42;;;28.80;37.10;;;;;;5093858;28;20067;-72
2023/05/27 11:52:03;;;;;;;9.77;3.00;;;27.90;38.10;;;;;;5094646;28;20020;-72
2023/05/27 11:54:33;;;;;;;9.02;3.08;;;27.70;38.80;;;;;;5091942;28;20098;-73
2023/05/27 11:56:58;;;;;;;;;;;28.10;39.30;;;;;;5095629;28;20095;-72
2023/05/27 11:59:25;;;;;;;12.15;3.67;;;27.70;37.90;;;;;;5076413;28;19959;-72
2023/05/27 12:01:53;;;;;;;7.55;2.75;;;27.50;37.30;;;;;;5094329;28;20087;-71
2023/05/27 12:04:19;;;;;;;7.28;2.83;;;26.90;38.50;;;;;;5094721;28;20055;-72
2023/05/27 12:06:45;;;;;;;9.07;3.15;;;27.30;40.20;;;;;;5095565;28;20093;-72
2023/05/27 12:09:12;;;;;;;8.60;3.10;;;28.30;38.80;;;;;;5076361;28;20048;-76
2023/05/27 12:11:38;;;;;;;7.50;2.83;;;28.50;38.60;;;;;;5095382;28;20461;-71
2023/05/27 12:14:04;;;;;;;11.88;3.25;;;28.50;38.50;;;;;;5076586;28;20036;-71
2023/05/27 12:16:30;;;;;;;12.45;3.55;;;28.10;37.10;;;;;;5076084;28;20032;-71
2023/05/27 12:18:58;;;;;;;9.82;3.35;;;28.00;37.10;;;;;;5094217;28;20119;-71
2023/05/27 12:21:24;;;;;;;11.75;3.80;;;27.60;37.20;;;;;;5094169;28;20153;-71
2023/05/27 12:23:50;;;;;;;8.70;2.70;;;27.70;39.10;;;;;;5094124;28;20055;-71
2023/05/27 12:26:16;;;;;;;9.77;2.97;;;28.40;38.40;;;;;;5094158;28;20043;-71
2023/05/27 12:28:43;;;;;;;7.47;2.97;;;28.20;36.30;;;;;;5075950;28;20024;-71
2023/05/27 12:31:09;;;;;;;11.13;3.97;;;28.00;38.20;;;;;;5094096;28;20028;-71
2023/05/27 12:33:34;;;;;;;6.95;3.00;;;28.10;37.30;;;;;;5075891;28;20035;-72
2023/05/27 12:36:05;;;;;;;8.70;3.45;;;28.40;37.40;;;;;;5076094;28;20447;-71
2023/05/27 12:38:30;;;;;;;9.30;3.80;;;28.70;37.70;;;;;;5075820;28;20032;-71
2023/05/27 12:40:57;;;;;;;8.75;3.25;;;29.30;36.70;;;;;;5075698;28;20069;-72